createdAt,value
2017-01-07T07:46:35.329Z,982.35
2017-01-07T07:47:35.284Z,982.37
2017-01-07T07:48:35.238Z,982.36
2017-01-07T07:49:35.189Z,982.39
2017-01-07T07:50:35.150Z,982.39
2017-01-07T07:51:35.097Z,982.31
2017-01-07T07:52:35.052Z,982.28
2017-01-07T07:53:35.004Z,982.31
2017-01-07T07:54:34.958Z,982.34
2017-01-07T07:55:34.911Z,982.31
2017-01-07T07:56:34.867Z,982.37
2017-01-07T07:57:34.821Z,982.32
2017-01-07T07:58:34.774Z,982.29
2017-01-07T07:59:34.727Z,982.26
2017-01-07T08:00:34.681Z,982.25
2017-01-07T08:01:34.634Z,982.27
2017-01-07T08:02:34.588Z,982.28
2017-01-07T08:03:34.550Z,982.28
2017-01-07T08:04:34.496Z,982.27
2017-01-07T08:05:34.448Z,982.21
2017-01-07T08:06:34.402Z,982.15
2017-01-07T08:07:34.356Z,982.18
2017-01-07T08:08:34.310Z,982.15
2017-01-07T08:09:34.263Z,982.12
2017-01-07T08:10:34.218Z,982.09
2017-01-07T08:11:34.171Z,982.14
2017-01-07T08:12:34.124Z,982.17
2017-01-07T08:13:34.077Z,982.24
2017-01-07T08:14:34.035Z,982.31
2017-01-07T08:15:33.987Z,982.32
2017-01-07T08:16:33.938Z,982.31
2017-01-07T08:17:33.890Z,982.34
2017-01-07T08:18:33.843Z,982.34
2017-01-07T08:19:33.797Z,982.32
2017-01-07T08:20:33.751Z,982.36
2017-01-07T08:21:33.704Z,982.34
2017-01-07T08:22:33.657Z,982.35
2017-01-07T08:23:33.611Z,982.36
2017-01-07T08:24:33.564Z,982.4
2017-01-07T08:25:33.518Z,982.39
2017-01-07T08:26:33.472Z,982.42
2017-01-07T08:27:33.425Z,982.37
2017-01-07T08:28:33.378Z,982.37
2017-01-07T08:29:33.333Z,982.36
2017-01-07T08:30:33.287Z,982.32
2017-01-07T08:31:33.238Z,982.31
2017-01-07T08:32:33.192Z,982.3
2017-01-07T08:33:33.145Z,982.31
2017-01-07T08:34:33.100Z,982.27
2017-01-07T08:35:33.053Z,982.32
2017-01-07T08:36:33.007Z,982.34
2017-01-07T08:37:32.960Z,982.35
2017-01-07T08:38:32.914Z,982.37
2017-01-07T08:39:32.866Z,982.43
2017-01-07T08:40:32.821Z,982.42
2017-01-07T08:41:32.774Z,982.38
2017-01-07T08:42:32.728Z,982.36
2017-01-07T08:43:32.683Z,982.39
2017-01-07T08:44:32.636Z,982.37
2017-01-07T08:45:32.590Z,982.4
2017-01-07T08:46:32.543Z,982.36
2017-01-07T08:47:32.498Z,982.31
2017-01-07T08:48:32.451Z,982.34
2017-01-07T08:49:32.405Z,982.34
2017-01-07T08:50:32.360Z,982.38
2017-01-07T08:51:32.311Z,982.37
2017-01-07T08:52:32.262Z,982.35
2017-01-07T08:53:32.219Z,982.32
2017-01-07T08:54:32.173Z,982.36
2017-01-07T08:55:32.126Z,982.36
2017-01-07T08:56:32.081Z,982.36
2017-01-07T08:57:32.033Z,982.36
2017-01-07T08:58:31.989Z,982.33
2017-01-07T08:59:31.943Z,982.26
2017-01-07T09:00:31.897Z,982.24
2017-01-07T09:01:31.850Z,982.26
2017-01-07T09:02:31.803Z,982.35
2017-01-07T09:03:31.757Z,982.35
2017-01-07T09:04:31.711Z,982.31
2017-01-07T09:05:31.666Z,982.31
2017-01-07T09:06:31.619Z,982.26
2017-01-07T09:07:31.575Z,982.23
2017-01-07T09:08:31.530Z,982.23
2017-01-07T09:09:31.480Z,982.2
2017-01-07T09:10:31.436Z,982.22
2017-01-07T09:11:31.389Z,982.21
2017-01-07T09:12:31.344Z,982.21
2017-01-07T09:13:31.296Z,982.16
2017-01-07T09:14:31.254Z,982.2
2017-01-07T09:15:31.204Z,982.21
2017-01-07T09:16:31.159Z,982.22
2017-01-07T09:17:31.113Z,982.25
2017-01-07T09:18:31.066Z,982.18
2017-01-07T09:19:31.020Z,982.17
2017-01-07T09:20:30.974Z,982.14
2017-01-07T09:21:30.930Z,982.08
2017-01-07T09:22:30.882Z,982.1
2017-01-07T09:23:30.837Z,982.11
2017-01-07T09:24:30.790Z,982.09
2017-01-07T09:25:30.743Z,982.09
2017-01-07T09:26:30.698Z,982.08
2017-01-07T09:27:30.652Z,982.06
2017-01-07T09:28:30.608Z,982.06
2017-01-07T09:29:30.560Z,982.06
2017-01-07T09:30:30.514Z,982.02
2017-01-07T09:31:30.469Z,981.98
2017-01-07T09:32:30.424Z,982.03
2017-01-07T09:33:30.377Z,982.03
2017-01-07T09:34:30.331Z,981.98
2017-01-07T09:35:30.286Z,981.99
2017-01-07T09:36:30.240Z,981.97
2017-01-07T09:37:30.196Z,981.93
2017-01-07T09:38:30.149Z,981.92
2017-01-07T09:39:30.103Z,981.94
2017-01-07T09:40:30.057Z,981.88
2017-01-07T09:41:30.012Z,981.96
2017-01-07T09:42:29.966Z,981.93
2017-01-07T09:43:29.921Z,981.92
2017-01-07T09:44:29.875Z,981.94
2017-01-07T09:45:29.829Z,981.92
2017-01-07T09:46:29.785Z,981.94
2017-01-07T09:47:29.740Z,981.97
2017-01-07T09:48:29.695Z,981.91
2017-01-07T09:49:29.650Z,981.9
2017-01-07T09:50:29.603Z,981.91
2017-01-07T09:51:29.557Z,981.9
2017-01-07T09:52:29.512Z,981.96
2017-01-07T09:53:29.468Z,981.95
2017-01-07T09:54:29.427Z,981.96
2017-01-07T09:55:29.379Z,981.9
2017-01-07T09:56:29.333Z,981.95
2017-01-07T09:57:29.288Z,981.91
2017-01-07T09:58:29.242Z,981.87
2017-01-07T09:59:29.197Z,981.93
2017-01-07T10:00:29.152Z,981.97
2017-01-07T10:01:29.107Z,982.02
2017-01-07T10:02:29.063Z,982
2017-01-07T10:03:29.016Z,982.06
2017-01-07T10:04:28.974Z,982.03
2017-01-07T10:05:28.928Z,981.99
2017-01-07T10:06:28.884Z,981.99
2017-01-07T10:07:28.837Z,981.97
2017-01-07T10:08:28.794Z,982.03
2017-01-07T10:09:28.747Z,981.98
2017-01-07T10:10:28.704Z,982
2017-01-07T10:11:28.659Z,982.01
2017-01-07T10:12:28.616Z,981.96
2017-01-07T10:13:28.573Z,981.95
2017-01-07T10:14:28.527Z,981.95
2017-01-07T10:15:28.484Z,981.9
2017-01-07T10:16:28.437Z,981.91
2017-01-07T10:17:28.398Z,981.88
2017-01-07T10:18:28.348Z,981.89
2017-01-07T10:19:28.304Z,981.84
2017-01-07T10:20:28.259Z,981.78
2017-01-07T10:21:28.213Z,981.73
2017-01-07T10:22:28.173Z,981.74
2017-01-07T10:23:28.126Z,981.82
2017-01-07T10:24:28.081Z,981.83
2017-01-07T10:25:28.037Z,981.82
2017-01-07T10:26:27.994Z,981.82
2017-01-07T10:27:27.947Z,981.82
2017-01-07T10:28:27.905Z,981.79
2017-01-07T10:29:27.860Z,981.79
2017-01-07T10:30:27.815Z,981.8
2017-01-07T10:31:27.770Z,981.8
2017-01-07T10:32:27.726Z,981.76
2017-01-07T10:33:27.686Z,981.73
2017-01-07T10:34:27.637Z,981.79
2017-01-07T10:35:27.593Z,981.76
2017-01-07T10:36:27.550Z,981.76
2017-01-07T10:37:27.506Z,981.74
2017-01-07T10:38:27.461Z,981.72
2017-01-07T10:39:27.416Z,981.71
2017-01-07T10:40:27.373Z,981.78
2017-01-07T10:41:27.328Z,981.79
2017-01-07T10:42:27.285Z,981.79
2017-01-07T10:43:27.241Z,981.78
2017-01-07T10:44:27.196Z,981.79
2017-01-07T10:45:27.153Z,981.71
2017-01-07T10:46:27.108Z,981.76
2017-01-07T10:47:27.072Z,981.72
2017-01-07T10:48:27.021Z,981.67
2017-01-07T10:49:26.976Z,981.63
2017-01-07T10:50:26.933Z,981.62
2017-01-07T10:51:26.888Z,981.68
2017-01-07T10:52:26.846Z,981.72
2017-01-07T10:53:26.815Z,981.75
2017-01-07T10:54:26.758Z,981.78
2017-01-07T10:55:26.713Z,981.82
2017-01-07T10:56:26.669Z,981.79
2017-01-07T10:57:26.625Z,981.75
2017-01-07T10:58:26.581Z,981.73
2017-01-07T10:59:26.536Z,981.68
2017-01-07T11:00:26.491Z,981.64
2017-01-07T11:01:26.451Z,981.62
2017-01-07T11:02:26.409Z,981.58
2017-01-07T11:03:26.361Z,981.62
2017-01-07T11:04:26.317Z,981.57
2017-01-07T11:05:26.273Z,981.56
2017-01-07T11:06:26.229Z,981.57
2017-01-07T11:07:26.185Z,981.58
2017-01-07T11:08:26.139Z,981.56
2017-01-07T11:09:26.097Z,981.56
2017-01-07T11:10:26.052Z,981.54
2017-01-07T11:11:26.008Z,981.52
2017-01-07T11:12:25.965Z,981.54
2017-01-07T11:13:25.920Z,981.45
2017-01-07T11:14:25.878Z,981.41
2017-01-07T11:15:25.830Z,981.39
2017-01-07T11:16:25.789Z,981.38
2017-01-07T11:17:25.744Z,981.38
2017-01-07T11:18:25.701Z,981.38
2017-01-07T11:19:25.656Z,981.36
2017-01-07T11:20:25.612Z,981.37
2017-01-07T11:21:25.569Z,981.31
2017-01-07T11:22:25.524Z,981.29
2017-01-07T11:23:25.479Z,981.32
2017-01-07T11:24:25.437Z,981.28
2017-01-07T11:25:25.393Z,981.3
2017-01-07T11:26:25.348Z,981.27
2017-01-07T11:27:25.305Z,981.25
2017-01-07T11:28:25.265Z,981.23
2017-01-07T11:29:25.218Z,981.17
2017-01-07T11:30:25.172Z,981.16
2017-01-07T11:31:25.130Z,981.18
2017-01-07T11:32:25.087Z,981.18
2017-01-07T11:33:25.042Z,981.23
2017-01-07T11:34:24.999Z,981.19
2017-01-07T11:35:24.954Z,981.19
2017-01-07T11:36:24.911Z,981.2
2017-01-07T11:37:24.867Z,981.19
2017-01-07T11:38:24.822Z,981.15
2017-01-07T11:39:24.779Z,981.12
2017-01-07T11:40:24.735Z,981.16
2017-01-07T11:41:24.691Z,981.12
2017-01-07T11:42:24.649Z,981.14
2017-01-07T11:43:24.606Z,981.11
2017-01-07T11:44:24.559Z,981.07
2017-01-07T11:45:24.518Z,981.1
2017-01-07T11:46:24.473Z,981.09
2017-01-07T11:47:24.430Z,981.06
2017-01-07T11:48:24.387Z,981.06
2017-01-07T11:49:24.342Z,981.07
2017-01-07T11:50:24.300Z,981.12
2017-01-07T11:51:24.254Z,981.08
2017-01-07T11:52:24.214Z,981.05
2017-01-07T11:53:24.170Z,981.07
2017-01-07T11:54:24.127Z,981.03
2017-01-07T11:55:24.082Z,980.98
2017-01-07T11:56:24.039Z,980.94
2017-01-07T11:57:23.996Z,980.88
2017-01-07T11:58:23.953Z,980.84
2017-01-07T11:59:23.909Z,980.84
2017-01-07T12:00:23.869Z,980.84
2017-01-07T12:01:23.825Z,980.79
2017-01-07T12:02:23.778Z,980.78
2017-01-07T12:03:23.737Z,980.7
2017-01-07T12:04:23.694Z,980.67
2017-01-07T12:05:23.652Z,980.64
2017-01-07T12:06:23.607Z,980.6
2017-01-07T12:07:23.564Z,980.58
2017-01-07T12:08:23.521Z,980.57
2017-01-07T12:09:23.479Z,980.56
2017-01-07T12:10:23.437Z,980.62
2017-01-07T12:11:23.394Z,980.56
2017-01-07T12:12:23.350Z,980.55
2017-01-07T12:13:23.306Z,980.53
2017-01-07T12:14:23.264Z,980.5
2017-01-07T12:15:23.221Z,980.48
2017-01-07T12:16:23.177Z,980.46
2017-01-07T12:17:23.134Z,980.43
2017-01-07T12:18:23.092Z,980.39
2017-01-07T12:19:23.047Z,980.39
2017-01-07T12:20:23.005Z,980.39
2017-01-07T12:21:22.963Z,980.4
2017-01-07T12:22:22.920Z,980.42
2017-01-07T12:23:22.879Z,980.45
2017-01-07T12:24:22.833Z,980.43
2017-01-07T12:25:22.791Z,980.44
2017-01-07T12:26:22.748Z,980.43
2017-01-07T12:27:22.705Z,980.42
2017-01-07T12:28:22.667Z,980.36
2017-01-07T12:29:22.620Z,980.31
2017-01-07T12:30:22.577Z,980.25
2017-01-07T12:31:22.535Z,980.23
2017-01-07T12:32:22.491Z,980.25
2017-01-07T12:33:22.450Z,980.23
2017-01-07T12:34:22.407Z,980.23
2017-01-07T12:35:22.361Z,980.23
2017-01-07T12:36:22.320Z,980.25
2017-01-07T12:37:22.276Z,980.31
2017-01-07T12:38:22.239Z,980.36
2017-01-07T12:39:22.191Z,980.36
2017-01-07T12:40:22.149Z,980.35
2017-01-07T12:41:22.107Z,980.34
2017-01-07T12:42:22.063Z,980.32
2017-01-07T12:43:22.020Z,980.3
2017-01-07T12:44:21.977Z,980.31
2017-01-07T12:45:21.934Z,980.26
2017-01-07T12:46:21.891Z,980.31
2017-01-07T12:47:21.849Z,980.22
2017-01-07T12:48:21.809Z,980.23
2017-01-07T12:49:21.763Z,980.2
2017-01-07T12:50:21.719Z,980.17
2017-01-07T12:51:21.676Z,980.16
2017-01-07T12:52:21.636Z,980.16
2017-01-07T12:53:21.598Z,980.15
2017-01-07T12:54:21.550Z,980.16
2017-01-07T12:55:21.505Z,980.19
2017-01-07T12:56:21.464Z,980.18
2017-01-07T12:57:21.426Z,980.18
2017-01-07T12:58:21.497Z,980.13
2017-01-07T12:59:21.333Z,980.1
2017-01-07T13:00:21.293Z,980.07
2017-01-07T13:01:21.249Z,980.04
2017-01-07T13:02:21.204Z,980.01
2017-01-07T13:03:21.163Z,980.04
2017-01-07T13:04:21.123Z,980.03
2017-01-07T13:05:21.076Z,980.03
2017-01-07T13:06:21.033Z,980.02
2017-01-07T13:07:20.990Z,979.96
2017-01-07T13:08:20.953Z,979.93
2017-01-07T13:09:20.903Z,979.94
2017-01-07T13:10:20.860Z,979.93
2017-01-07T13:11:20.818Z,979.97
2017-01-07T13:12:20.777Z,979.97
2017-01-07T13:13:20.732Z,979.98
2017-01-07T13:14:20.688Z,980.09
2017-01-07T13:15:20.648Z,980.06
2017-01-07T13:16:20.601Z,980.07
2017-01-07T13:17:20.559Z,980.11
2017-01-07T13:18:20.516Z,980.09
2017-01-07T13:19:20.474Z,980.09
2017-01-07T13:20:20.433Z,980.09
2017-01-07T13:21:20.389Z,980.11
2017-01-07T13:22:20.345Z,980.1
2017-01-07T13:23:20.302Z,980.14
2017-01-07T13:24:20.259Z,980.12
2017-01-07T13:25:20.216Z,980.2
2017-01-07T13:26:20.175Z,980.14
2017-01-07T13:27:20.131Z,980.12
2017-01-07T13:28:20.093Z,980.12
2017-01-07T13:29:20.048Z,980.08
2017-01-07T13:30:20.002Z,980.14
2017-01-07T13:31:19.959Z,980.11
2017-01-07T13:32:19.918Z,980.15
2017-01-07T13:33:19.874Z,980.11
2017-01-07T13:34:19.831Z,980.13
2017-01-07T13:35:19.787Z,980.07
2017-01-07T13:36:19.745Z,980.1
2017-01-07T13:37:19.702Z,980.1
2017-01-07T13:38:19.661Z,980.11
2017-01-07T13:39:19.617Z,980.14
2017-01-07T13:40:19.575Z,980.11
2017-01-07T13:41:19.530Z,980.09
2017-01-07T13:42:19.489Z,980.07
2017-01-07T13:43:19.444Z,980.03
2017-01-07T13:44:19.401Z,980.02
2017-01-07T13:45:19.358Z,980
2017-01-07T13:46:19.316Z,980.02
2017-01-07T13:47:19.273Z,980.05
2017-01-07T13:48:19.231Z,980.07
2017-01-07T13:49:19.187Z,980.06
2017-01-07T13:50:19.144Z,980.08
2017-01-07T13:51:19.102Z,980.14
2017-01-07T13:52:19.058Z,980.11
2017-01-07T13:53:19.016Z,980.13
2017-01-07T13:54:18.972Z,980.15
2017-01-07T13:55:18.930Z,980.16
2017-01-07T13:56:18.886Z,980.15
2017-01-07T13:57:18.847Z,980.17
2017-01-07T13:58:18.808Z,980.13
2017-01-07T13:59:18.758Z,980.09
2017-01-07T14:00:18.715Z,980.12
2017-01-07T14:01:18.672Z,980.12
2017-01-07T14:02:18.630Z,980.18
2017-01-07T14:03:18.587Z,980.22
2017-01-07T14:04:18.543Z,980.23
2017-01-07T14:05:18.500Z,980.21
2017-01-07T14:06:18.457Z,980.21
2017-01-07T14:07:18.416Z,980.23
2017-01-07T14:08:18.370Z,980.24
2017-01-07T14:09:18.329Z,980.19
2017-01-07T14:10:18.284Z,980.16
2017-01-07T14:11:18.241Z,980.2
2017-01-07T14:12:18.198Z,980.23
2017-01-07T14:13:18.163Z,980.25
2017-01-07T14:14:18.110Z,980.18
2017-01-07T14:15:18.068Z,980.21
2017-01-07T14:16:18.026Z,980.21
2017-01-07T14:17:17.983Z,980.18
2017-01-07T14:18:17.941Z,980.18
2017-01-07T14:19:17.904Z,980.24
2017-01-07T14:20:17.853Z,980.21
2017-01-07T14:21:17.810Z,980.19
2017-01-07T14:22:17.766Z,980.11
2017-01-07T14:23:17.723Z,980.2
2017-01-07T14:24:17.680Z,980.2
2017-01-07T14:25:17.636Z,980.15
2017-01-07T14:26:17.592Z,980.14
2017-01-07T14:27:17.548Z,980.14
2017-01-07T14:28:17.508Z,980.14
2017-01-07T14:29:17.465Z,980.13
2017-01-07T14:30:17.419Z,980.09
2017-01-07T14:31:17.377Z,980.09
2017-01-07T14:32:17.332Z,980.07
2017-01-07T14:33:17.287Z,980.1
2017-01-07T14:34:17.245Z,980.07
2017-01-07T14:35:17.202Z,980.05
2017-01-07T14:36:17.158Z,980.08
2017-01-07T14:37:17.119Z,980.06
2017-01-07T14:38:17.072Z,980.11
2017-01-07T14:39:17.029Z,980.09
2017-01-07T14:40:16.984Z,980.07
2017-01-07T14:41:16.944Z,980.11
2017-01-07T14:42:16.902Z,980.08
2017-01-07T14:43:16.853Z,980.11
2017-01-07T14:44:16.811Z,980.09
2017-01-07T14:45:16.767Z,980.12
2017-01-07T14:46:16.725Z,980.1
2017-01-07T14:47:16.680Z,980.13
2017-01-07T14:48:16.636Z,980.14
2017-01-07T14:49:16.593Z,980.15
2017-01-07T14:50:16.553Z,980.18
2017-01-07T14:51:16.505Z,980.13
2017-01-07T14:52:16.461Z,980.18
2017-01-07T14:53:16.419Z,980.2
2017-01-07T14:54:16.373Z,980.12
2017-01-07T14:55:16.330Z,980.14
2017-01-07T14:56:16.290Z,980.18
2017-01-07T14:57:16.243Z,980.15
2017-01-07T14:58:16.199Z,980.25
2017-01-07T14:59:16.156Z,980.27
2017-01-07T15:00:16.112Z,980.27
2017-01-07T15:01:16.068Z,980.2
2017-01-07T15:02:16.025Z,980.16
2017-01-07T15:03:15.981Z,980.22
2017-01-07T15:04:15.940Z,980.26
2017-01-07T15:05:15.894Z,980.3
2017-01-07T15:06:15.850Z,980.29
2017-01-07T15:07:15.810Z,980.27
2017-01-07T15:08:15.764Z,980.25
2017-01-07T15:09:15.719Z,980.2
2017-01-07T15:10:15.676Z,980.2
2017-01-07T15:11:15.631Z,980.2
2017-01-07T15:12:15.588Z,980.18
2017-01-07T15:13:15.545Z,980.22
2017-01-07T15:14:15.500Z,980.22
2017-01-07T15:15:15.455Z,980.21
2017-01-07T15:16:15.412Z,980.2
2017-01-07T15:17:15.376Z,980.25
2017-01-07T15:18:15.325Z,980.23
2017-01-07T15:19:15.281Z,980.28
2017-01-07T15:20:15.236Z,980.29
2017-01-07T15:21:15.192Z,980.27
2017-01-07T15:22:15.148Z,980.27
2017-01-07T15:23:15.104Z,980.27
2017-01-07T15:24:15.060Z,980.26
2017-01-07T15:25:15.018Z,980.27
2017-01-07T15:26:14.971Z,980.28
2017-01-07T15:27:14.933Z,980.34
2017-01-07T15:28:14.883Z,980.3
2017-01-07T15:29:14.842Z,980.3
2017-01-07T15:30:14.796Z,980.29
2017-01-07T15:31:14.751Z,980.27
2017-01-07T15:32:14.707Z,980.25
2017-01-07T15:33:14.663Z,980.24
2017-01-07T15:34:14.620Z,980.22
2017-01-07T15:35:14.618Z,980.24
2017-01-07T15:36:14.532Z,980.18
2017-01-07T15:37:14.487Z,980.15
2017-01-07T15:38:14.442Z,980.13
2017-01-07T15:39:14.399Z,980.16
2017-01-07T15:40:14.354Z,980.12
2017-01-07T15:41:14.311Z,980.14
2017-01-07T15:42:14.266Z,980.13
2017-01-07T15:43:14.221Z,980.14
2017-01-07T15:44:14.178Z,980.12
2017-01-07T15:45:14.133Z,980.09
2017-01-07T15:46:14.089Z,980.07
2017-01-07T15:47:14.044Z,980.03
2017-01-07T15:48:13.999Z,980.03
